sensor_id;sensor_type;location;lat;lon;timestamp;P1;durP1;ratioP1;P2;durP2;ratioP2
52934;SDS011;38802;50.198;19.796;2022-10-30T00:01:20;20.30;;;16.50;;
52934;SDS011;38802;50.198;19.796;2022-10-30T00:03:49;17.30;;;14.70;;
52934;SDS011;38802;50.198;19.796;2022-10-30T00:06:18;29.30;;;15.90;;
52934;SDS011;38802;50.198;19.796;2022-10-30T00:08:46;27.80;;;16.90;;
52934;SDS011;38802;50.198;19.796;2022-10-30T00:11:14;21.30;;;16.90;;
52934;SDS011;38802;50.198;19.796;2022-10-30T00:13:42;21.10;;;16.50;;
52934;SDS011;38802;50.198;19.796;2022-10-30T00:16:11;27.20;;;17.10;;
52934;SDS011;38802;50.198;19.796;2022-10-30T00:18:39;19.30;;;16.80;;
52934;SDS011;38802;50.198;19.796;2022-10-30T00:21:10;19.50;;;15.90;;
52934;SDS011;38802;50.198;19.796;2022-10-30T00:23:44;26.80;;;17.50;;
52934;SDS011;38802;50.198;19.796;2022-10-30T00:26:14;19.20;;;15.80;;
52934;SDS011;38802;50.198;19.796;2022-10-30T00:28:43;20.30;;;15.20;;
52934;SDS011;38802;50.198;19.796;2022-10-30T00:31:11;31.10;;;14.90;;
52934;SDS011;38802;50.198;19.796;2022-10-30T00:33:39;26.90;;;16.40;;
52934;SDS011;38802;50.198;19.796;2022-10-30T00:36:07;21.60;;;14.50;;
52934;SDS011;38802;50.198;19.796;2022-10-30T00:38:35;20.90;;;15.00;;
52934;SDS011;38802;50.198;19.796;2022-10-30T00:41:03;19.30;;;14.30;;
52934;SDS011;38802;50.198;19.796;2022-10-30T00:46:14;19.00;;;14.10;;
52934;SDS011;38802;50.198;19.796;2022-10-30T00:54:22;19.00;;;13.50;;
52934;SDS011;38802;50.198;19.796;2022-10-30T00:56:51;19.90;;;14.40;;
52934;SDS011;38802;50.198;19.796;2022-10-30T00:59:23;19.20;;;13.80;;
52934;SDS011;38802;50.198;19.796;2022-10-30T01:01:54;16.80;;;14.30;;
52934;SDS011;38802;50.198;19.796;2022-10-30T01:04:24;19.30;;;15.40;;
52934;SDS011;38802;50.198;19.796;2022-10-30T01:06:57;17.20;;;13.40;;
52934;SDS011;38802;50.198;19.796;2022-10-30T01:09:27;15.70;;;14.00;;
52934;SDS011;38802;50.198;19.796;2022-10-30T01:11:57;19.50;;;14.30;;
52934;SDS011;38802;50.198;19.796;2022-10-30T01:14:26;23.00;;;15.10;;
52934;SDS011;38802;50.198;19.796;2022-10-30T01:19:47;15.90;;;12.90;;
52934;SDS011;38802;50.198;19.796;2022-10-30T01:25:35;18.50;;;13.70;;
52934;SDS011;38802;50.198;19.796;2022-10-30T01:41:52;17.00;;;13.00;;
52934;SDS011;38802;50.198;19.796;2022-10-30T01:44:25;23.30;;;12.90;;
52934;SDS011;38802;50.198;19.796;2022-10-30T01:57:42;23.40;;;16.10;;
52934;SDS011;38802;50.198;19.796;2022-10-30T02:00:36;23.70;;;14.50;;
52934;SDS011;38802;50.198;19.796;2022-10-30T02:03:07;24.70;;;15.50;;
52934;SDS011;38802;50.198;19.796;2022-10-30T02:05:37;16.50;;;14.70;;
52934;SDS011;38802;50.198;19.796;2022-10-30T02:08:10;21.20;;;15.50;;
52934;SDS011;38802;50.198;19.796;2022-10-30T02:10:38;22.80;;;15.00;;
52934;SDS011;38802;50.198;19.796;2022-10-30T02:13:10;21.30;;;15.40;;
52934;SDS011;38802;50.198;19.796;2022-10-30T02:15:38;20.80;;;15.50;;
52934;SDS011;38802;50.198;19.796;2022-10-30T02:18:07;23.40;;;14.80;;
52934;SDS011;38802;50.198;19.796;2022-10-30T02:20:36;22.10;;;15.70;;
52934;SDS011;38802;50.198;19.796;2022-10-30T02:23:05;25.50;;;15.80;;
52934;SDS011;38802;50.198;19.796;2022-10-30T02:25:34;25.70;;;17.10;;
52934;SDS011;38802;50.198;19.796;2022-10-30T02:28:03;27.60;;;15.90;;
52934;SDS011;38802;50.198;19.796;2022-10-30T02:30:31;23.40;;;17.60;;
52934;SDS011;38802;50.198;19.796;2022-10-30T02:33:00;21.20;;;16.20;;
52934;SDS011;38802;50.198;19.796;2022-10-30T02:35:29;19.50;;;17.00;;
52934;SDS011;38802;50.198;19.796;2022-10-30T02:37:57;28.80;;;17.60;;
52934;SDS011;38802;50.198;19.796;2022-10-30T02:40:26;23.00;;;15.70;;
52934;SDS011;38802;50.198;19.796;2022-10-30T02:42:56;23.20;;;18.80;;
52934;SDS011;38802;50.198;19.796;2022-10-30T02:45:24;24.50;;;17.40;;
52934;SDS011;38802;50.198;19.796;2022-10-30T02:47:52;24.00;;;18.50;;
52934;SDS011;38802;50.198;19.796;2022-10-30T02:50:20;29.20;;;20.90;;
52934;SDS011;38802;50.198;19.796;2022-10-30T02:52:51;25.90;;;20.50;;
52934;SDS011;38802;50.198;19.796;2022-10-30T02:55:19;29.40;;;23.00;;
52934;SDS011;38802;50.198;19.796;2022-10-30T02:57:47;30.40;;;22.40;;
52934;SDS011;38802;50.198;19.796;2022-10-30T03:00:17;30.00;;;22.90;;
52934;SDS011;38802;50.198;19.796;2022-10-30T03:02:46;38.00;;;24.50;;
52934;SDS011;38802;50.198;19.796;2022-10-30T03:05:14;35.30;;;24.00;;
52934;SDS011;38802;50.198;19.796;2022-10-30T03:07:42;31.80;;;23.50;;
52934;SDS011;38802;50.198;19.796;2022-10-30T03:10:10;37.00;;;24.70;;
52934;SDS011;38802;50.198;19.796;2022-10-30T03:12:38;33.00;;;23.50;;
52934;SDS011;38802;50.198;19.796;2022-10-30T03:15:07;39.50;;;25.70;;
52934;SDS011;38802;50.198;19.796;2022-10-30T03:17:36;37.60;;;26.20;;
52934;SDS011;38802;50.198;19.796;2022-10-30T03:20:05;37.00;;;24.90;;
52934;SDS011;38802;50.198;19.796;2022-10-30T03:22:33;39.80;;;26.40;;
52934;SDS011;38802;50.198;19.796;2022-10-30T03:25:02;37.80;;;25.60;;
52934;SDS011;38802;50.198;19.796;2022-10-30T03:27:32;40.00;;;26.30;;
52934;SDS011;38802;50.198;19.796;2022-10-30T03:30:00;41.30;;;25.70;;
52934;SDS011;38802;50.198;19.796;2022-10-30T03:32:28;34.90;;;26.00;;
52934;SDS011;38802;50.198;19.796;2022-10-30T03:34:56;37.70;;;25.30;;
52934;SDS011;38802;50.198;19.796;2022-10-30T03:37:24;36.80;;;23.50;;
52934;SDS011;38802;50.198;19.796;2022-10-30T03:39:52;41.90;;;26.00;;
52934;SDS011;38802;50.198;19.796;2022-10-30T03:42:21;37.00;;;26.20;;
52934;SDS011;38802;50.198;19.796;2022-10-30T03:44:50;39.10;;;25.80;;
52934;SDS011;38802;50.198;19.796;2022-10-30T03:47:18;37.80;;;24.20;;
52934;SDS011;38802;50.198;19.796;2022-10-30T03:49:46;36.80;;;25.90;;
52934;SDS011;38802;50.198;19.796;2022-10-30T03:52:17;29.20;;;23.20;;
52934;SDS011;38802;50.198;19.796;2022-10-30T03:54:47;38.40;;;24.50;;
52934;SDS011;38802;50.198;19.796;2022-10-30T03:57:16;35.10;;;23.50;;
52934;SDS011;38802;50.198;19.796;2022-10-30T04:00:06;37.40;;;25.70;;
52934;SDS011;38802;50.198;19.796;2022-10-30T04:02:55;42.80;;;27.10;;
52934;SDS011;38802;50.198;19.796;2022-10-30T04:05:25;39.80;;;23.70;;
52934;SDS011;38802;50.198;19.796;2022-10-30T04:07:56;34.70;;;24.60;;
52934;SDS011;38802;50.198;19.796;2022-10-30T04:10:26;28.50;;;22.70;;
52934;SDS011;38802;50.198;19.796;2022-10-30T04:12:59;28.50;;;20.50;;
52934;SDS011;38802;50.198;19.796;2022-10-30T04:15:28;31.10;;;22.90;;
52934;SDS011;38802;50.198;19.796;2022-10-30T04:17:57;37.50;;;23.60;;
52934;SDS011;38802;50.198;19.796;2022-10-30T04:20:26;32.00;;;23.50;;
52934;SDS011;38802;50.198;19.796;2022-10-30T04:22:55;35.50;;;22.50;;
52934;SDS011;38802;50.198;19.796;2022-10-30T04:25:25;34.90;;;24.20;;
52934;SDS011;38802;50.198;19.796;2022-10-30T04:27:55;37.40;;;23.30;;
52934;SDS011;38802;50.198;19.796;2022-10-30T04:30:24;33.30;;;20.20;;
52934;SDS011;38802;50.198;19.796;2022-10-30T04:32:54;30.80;;;20.90;;
52934;SDS011;38802;50.198;19.796;2022-10-30T04:35:24;39.40;;;21.40;;
52934;SDS011;38802;50.198;19.796;2022-10-30T04:37:56;37.30;;;23.00;;
52934;SDS011;38802;50.198;19.796;2022-10-30T04:40:26;34.30;;;22.00;;
52934;SDS011;38802;50.198;19.796;2022-10-30T04:43:00;32.30;;;21.50;;
52934;SDS011;38802;50.198;19.796;2022-10-30T04:45:29;31.10;;;22.50;;
52934;SDS011;38802;50.198;19.796;2022-10-30T04:47:59;34.60;;;22.20;;
52934;SDS011;38802;50.198;19.796;2022-10-30T04:50:47;28.80;;;20.10;;
52934;SDS011;38802;50.198;19.796;2022-10-30T04:53:24;31.20;;;21.20;;
52934;SDS011;38802;50.198;19.796;2022-10-30T04:55:57;34.90;;;22.40;;
52934;SDS011;38802;50.198;19.796;2022-10-30T04:58:27;36.80;;;22.60;;
52934;SDS011;38802;50.198;19.796;2022-10-30T05:01:02;32.20;;;22.10;;
52934;SDS011;38802;50.198;19.796;2022-10-30T05:03:32;35.40;;;23.90;;
52934;SDS011;38802;50.198;19.796;2022-10-30T05:06:03;31.00;;;23.10;;
52934;SDS011;38802;50.198;19.796;2022-10-30T05:08:34;37.30;;;23.00;;
52934;SDS011;38802;50.198;19.796;2022-10-30T05:11:08;39.40;;;23.30;;
52934;SDS011;38802;50.198;19.796;2022-10-30T05:13:37;34.60;;;25.40;;
52934;SDS011;38802;50.198;19.796;2022-10-30T05:16:05;36.00;;;24.70;;
52934;SDS011;38802;50.198;19.796;2022-10-30T05:18:33;40.10;;;25.50;;
52934;SDS011;38802;50.198;19.796;2022-10-30T05:21:02;40.50;;;27.10;;
52934;SDS011;38802;50.198;19.796;2022-10-30T05:23:30;44.90;;;29.00;;
52934;SDS011;38802;50.198;19.796;2022-10-30T05:25:58;43.50;;;26.80;;
52934;SDS011;38802;50.198;19.796;2022-10-30T05:28:28;55.30;;;32.70;;
52934;SDS011;38802;50.198;19.796;2022-10-30T05:30:57;45.80;;;29.30;;
52934;SDS011;38802;50.198;19.796;2022-10-30T05:33:44;54.10;;;30.70;;
52934;SDS011;38802;50.198;19.796;2022-10-30T05:36:13;52.70;;;30.60;;
52934;SDS011;38802;50.198;19.796;2022-10-30T05:38:41;54.00;;;30.00;;
52934;SDS011;38802;50.198;19.796;2022-10-30T05:41:13;51.40;;;32.50;;
52934;SDS011;38802;50.198;19.796;2022-10-30T05:43:42;51.40;;;29.60;;
52934;SDS011;38802;50.198;19.796;2022-10-30T05:46:10;51.30;;;29.70;;
52934;SDS011;38802;50.198;19.796;2022-10-30T05:48:38;49.30;;;30.20;;
52934;SDS011;38802;50.198;19.796;2022-10-30T05:51:06;46.60;;;30.40;;
52934;SDS011;38802;50.198;19.796;2022-10-30T05:53:37;47.40;;;31.00;;
52934;SDS011;38802;50.198;19.796;2022-10-30T05:56:05;53.90;;;30.50;;
52934;SDS011;38802;50.198;19.796;2022-10-30T05:58:34;43.40;;;28.80;;
52934;SDS011;38802;50.198;19.796;2022-10-30T06:01:06;58.20;;;30.30;;
52934;SDS011;38802;50.198;19.796;2022-10-30T06:03:39;46.90;;;28.40;;
52934;SDS011;38802;50.198;19.796;2022-10-30T06:06:07;40.20;;;26.70;;
52934;SDS011;38802;50.198;19.796;2022-10-30T06:08:36;41.20;;;26.80;;
52934;SDS011;38802;50.198;19.796;2022-10-30T06:11:33;43.00;;;26.60;;
52934;SDS011;38802;50.198;19.796;2022-10-30T06:14:02;42.40;;;25.90;;
52934;SDS011;38802;50.198;19.796;2022-10-30T06:16:37;41.30;;;26.10;;
52934;SDS011;38802;50.198;19.796;2022-10-30T06:19:26;44.70;;;27.20;;
52934;SDS011;38802;50.198;19.796;2022-10-30T06:22:03;49.50;;;28.60;;
52934;SDS011;38802;50.198;19.796;2022-10-30T06:24:40;46.30;;;28.60;;
52934;SDS011;38802;50.198;19.796;2022-10-30T06:27:21;54.40;;;29.00;;
52934;SDS011;38802;50.198;19.796;2022-10-30T06:29:49;65.30;;;35.00;;
52934;SDS011;38802;50.198;19.796;2022-10-30T06:32:17;56.00;;;33.50;;
52934;SDS011;38802;50.198;19.796;2022-10-30T06:34:45;60.10;;;33.70;;
52934;SDS011;38802;50.198;19.796;2022-10-30T06:37:15;61.70;;;35.50;;
52934;SDS011;38802;50.198;19.796;2022-10-30T06:39:43;60.70;;;33.50;;
52934;SDS011;38802;50.198;19.796;2022-10-30T06:42:32;67.50;;;35.30;;
52934;SDS011;38802;50.198;19.796;2022-10-30T06:45:09;62.70;;;34.50;;
52934;SDS011;38802;50.198;19.796;2022-10-30T06:47:39;56.90;;;32.90;;
52934;SDS011;38802;50.198;19.796;2022-10-30T06:50:09;59.50;;;34.00;;
52934;SDS011;38802;50.198;19.796;2022-10-30T06:52:39;53.90;;;31.60;;
52934;SDS011;38802;50.198;19.796;2022-10-30T06:55:08;55.70;;;32.20;;
52934;SDS011;38802;50.198;19.796;2022-10-30T06:57:55;54.20;;;31.50;;
52934;SDS011;38802;50.198;19.796;2022-10-30T07:00:43;46.90;;;29.40;;
52934;SDS011;38802;50.198;19.796;2022-10-30T07:03:41;51.50;;;30.20;;
52934;SDS011;38802;50.198;19.796;2022-10-30T07:06:09;45.90;;;30.30;;
52934;SDS011;38802;50.198;19.796;2022-10-30T07:08:37;49.20;;;29.50;;
52934;SDS011;38802;50.198;19.796;2022-10-30T07:11:06;48.40;;;28.60;;
52934;SDS011;38802;50.198;19.796;2022-10-30T07:13:35;50.30;;;28.20;;
52934;SDS011;38802;50.198;19.796;2022-10-30T07:16:17;48.70;;;28.90;;
52934;SDS011;38802;50.198;19.796;2022-10-30T07:18:48;55.40;;;29.70;;
52934;SDS011;38802;50.198;19.796;2022-10-30T07:21:16;51.00;;;30.00;;
52934;SDS011;38802;50.198;19.796;2022-10-30T07:23:45;50.20;;;24.10;;
52934;SDS011;38802;50.198;19.796;2022-10-30T07:26:19;29.40;;;19.00;;
52934;SDS011;38802;50.198;19.796;2022-10-30T07:28:48;33.40;;;18.90;;
52934;SDS011;38802;50.198;19.796;2022-10-30T07:31:21;29.70;;;18.80;;
52934;SDS011;38802;50.198;19.796;2022-10-30T07:34:34;24.30;;;16.20;;
52934;SDS011;38802;50.198;19.796;2022-10-30T07:37:22;23.00;;;14.70;;
52934;SDS011;38802;50.198;19.796;2022-10-30T07:40:05;28.40;;;15.60;;
52934;SDS011;38802;50.198;19.796;2022-10-30T07:42:48;21.90;;;14.00;;
52934;SDS011;38802;50.198;19.796;2022-10-30T07:45:34;26.30;;;14.60;;
52934;SDS011;38802;50.198;19.796;2022-10-30T07:48:21;18.90;;;13.70;;
52934;SDS011;38802;50.198;19.796;2022-10-30T07:51:16;26.70;;;14.10;;
52934;SDS011;38802;50.198;19.796;2022-10-30T07:53:45;21.40;;;12.90;;
52934;SDS011;38802;50.198;19.796;2022-10-30T07:56:13;25.40;;;13.40;;
52934;SDS011;38802;50.198;19.796;2022-10-30T07:58:56;19.80;;;14.30;;
52934;SDS011;38802;50.198;19.796;2022-10-30T08:01:43;20.60;;;13.60;;
52934;SDS011;38802;50.198;19.796;2022-10-30T08:04:44;23.80;;;14.20;;
52934;SDS011;38802;50.198;19.796;2022-10-30T08:09:59;14.60;;;12.40;;
52934;SDS011;38802;50.198;19.796;2022-10-30T08:12:27;20.70;;;12.20;;
52934;SDS011;38802;50.198;19.796;2022-10-30T08:14:55;16.80;;;11.60;;
52934;SDS011;38802;50.198;19.796;2022-10-30T08:17:24;15.80;;;11.20;;
52934;SDS011;38802;50.198;19.796;2022-10-30T08:19:52;15.50;;;11.20;;
52934;SDS011;38802;50.198;19.796;2022-10-30T08:22:20;15.40;;;10.60;;
52934;SDS011;38802;50.198;19.796;2022-10-30T08:27:26;20.30;;;11.50;;
52934;SDS011;38802;50.198;19.796;2022-10-30T08:29:54;15.80;;;10.50;;
52934;SDS011;38802;50.198;19.796;2022-10-30T08:32:23;15.70;;;9.60;;
52934;SDS011;38802;50.198;19.796;2022-10-30T08:35:11;19.50;;;11.30;;
52934;SDS011;38802;50.198;19.796;2022-10-30T08:37:46;13.70;;;9.80;;
52934;SDS011;38802;50.198;19.796;2022-10-30T08:40:14;18.40;;;11.10;;
52934;SDS011;38802;50.198;19.796;2022-10-30T08:42:54;15.10;;;10.00;;
52934;SDS011;38802;50.198;19.796;2022-10-30T08:45:24;20.10;;;10.20;;
52934;SDS011;38802;50.198;19.796;2022-10-30T08:48:04;14.90;;;8.60;;
52934;SDS011;38802;50.198;19.796;2022-10-30T08:50:37;16.10;;;10.00;;
52934;SDS011;38802;50.198;19.796;2022-10-30T08:53:09;12.40;;;8.50;;
52934;SDS011;38802;50.198;19.796;2022-10-30T08:55:38;20.10;;;9.70;;
52934;SDS011;38802;50.198;19.796;2022-10-30T08:58:12;27.10;;;11.00;;
52934;SDS011;38802;50.198;19.796;2022-10-30T09:00:41;11.30;;;8.70;;
52934;SDS011;38802;50.198;19.796;2022-10-30T09:03:12;14.90;;;9.30;;
52934;SDS011;38802;50.198;19.796;2022-10-30T09:05:59;17.90;;;10.20;;
52934;SDS011;38802;50.198;19.796;2022-10-30T09:08:54;14.10;;;9.80;;
52934;SDS011;38802;50.198;19.796;2022-10-30T09:11:39;17.90;;;9.90;;
52934;SDS011;38802;50.198;19.796;2022-10-30T09:14:08;14.20;;;9.40;;
52934;SDS011;38802;50.198;19.796;2022-10-30T09:16:36;10.90;;;9.20;;
52934;SDS011;38802;50.198;19.796;2022-10-30T09:19:04;12.60;;;9.20;;
52934;SDS011;38802;50.198;19.796;2022-10-30T09:21:32;13.80;;;9.70;;
52934;SDS011;38802;50.198;19.796;2022-10-30T09:24:00;13.20;;;8.70;;
52934;SDS011;38802;50.198;19.796;2022-10-30T09:26:51;19.40;;;8.90;;
52934;SDS011;38802;50.198;19.796;2022-10-30T09:29:24;14.40;;;8.50;;
52934;SDS011;38802;50.198;19.796;2022-10-30T09:32:14;14.80;;;8.80;;
52934;SDS011;38802;50.198;19.796;2022-10-30T09:34:54;12.70;;;9.10;;
52934;SDS011;38802;50.198;19.796;2022-10-30T09:37:27;14.90;;;8.00;;
52934;SDS011;38802;50.198;19.796;2022-10-30T09:39:58;14.00;;;8.20;;
52934;SDS011;38802;50.198;19.796;2022-10-30T09:45:33;13.80;;;8.20;;
52934;SDS011;38802;50.198;19.796;2022-10-30T09:48:33;26.90;;;9.90;;
52934;SDS011;38802;50.198;19.796;2022-10-30T09:54:18;14.20;;;9.10;;
52934;SDS011;38802;50.198;19.796;2022-10-30T10:00:04;13.50;;;9.20;;
52934;SDS011;38802;50.198;19.796;2022-10-30T10:05:54;18.00;;;9.80;;
52934;SDS011;38802;50.198;19.796;2022-10-30T10:08:50;13.40;;;8.60;;
52934;SDS011;38802;50.198;19.796;2022-10-30T10:12:20;18.80;;;9.00;;
52934;SDS011;38802;50.198;19.796;2022-10-30T10:14:55;21.00;;;10.10;;
52934;SDS011;38802;50.198;19.796;2022-10-30T10:17:30;18.20;;;8.60;;
52934;SDS011;38802;50.198;19.796;2022-10-30T10:20:02;19.10;;;8.80;;
52934;SDS011;38802;50.198;19.796;2022-10-30T10:22:38;14.80;;;8.60;;
52934;SDS011;38802;50.198;19.796;2022-10-30T10:25:14;15.60;;;8.20;;
52934;SDS011;38802;50.198;19.796;2022-10-30T10:31:18;22.30;;;8.30;;
52934;SDS011;38802;50.198;19.796;2022-10-30T10:33:59;12.90;;;8.50;;
52934;SDS011;38802;50.198;19.796;2022-10-30T10:37:19;17.70;;;7.70;;
52934;SDS011;38802;50.198;19.796;2022-10-30T10:55:52;12.00;;;6.60;;
52934;SDS011;38802;50.198;19.796;2022-10-30T10:58:30;17.40;;;7.20;;
52934;SDS011;38802;50.198;19.796;2022-10-30T11:01:08;14.50;;;7.00;;
52934;SDS011;38802;50.198;19.796;2022-10-30T11:06:47;9.90;;;7.00;;
52934;SDS011;38802;50.198;19.796;2022-10-30T11:09:21;10.30;;;6.70;;
52934;SDS011;38802;50.198;19.796;2022-10-30T11:11:52;10.10;;;6.90;;
52934;SDS011;38802;50.198;19.796;2022-10-30T11:14:27;13.70;;;7.50;;
52934;SDS011;38802;50.198;19.796;2022-10-30T11:20:00;17.30;;;8.10;;
52934;SDS011;38802;50.198;19.796;2022-10-30T11:22:58;11.30;;;7.10;;
52934;SDS011;38802;50.198;19.796;2022-10-30T11:25:32;14.40;;;8.90;;
52934;SDS011;38802;50.198;19.796;2022-10-30T11:28:03;19.20;;;8.80;;
52934;SDS011;38802;50.198;19.796;2022-10-30T11:30:32;14.70;;;8.60;;
52934;SDS011;38802;50.198;19.796;2022-10-30T11:33:19;16.70;;;8.10;;
52934;SDS011;38802;50.198;19.796;2022-10-30T11:35:49;14.60;;;7.70;;
52934;SDS011;38802;50.198;19.796;2022-10-30T11:38:18;14.10;;;8.90;;
52934;SDS011;38802;50.198;19.796;2022-10-30T11:40:48;19.90;;;9.40;;
52934;SDS011;38802;50.198;19.796;2022-10-30T11:43:20;20.50;;;8.90;;
52934;SDS011;38802;50.198;19.796;2022-10-30T11:45:50;19.70;;;7.10;;
52934;SDS011;38802;50.198;19.796;2022-10-30T11:50:59;16.60;;;8.70;;
52934;SDS011;38802;50.198;19.796;2022-10-30T11:55:57;23.70;;;9.10;;
52934;SDS011;38802;50.198;19.796;2022-10-30T11:58:32;18.20;;;9.90;;
52934;SDS011;38802;50.198;19.796;2022-10-30T12:01:05;15.00;;;9.10;;
52934;SDS011;38802;50.198;19.796;2022-10-30T12:03:40;10.90;;;9.70;;
52934;SDS011;38802;50.198;19.796;2022-10-30T12:06:10;17.10;;;9.20;;
52934;SDS011;38802;50.198;19.796;2022-10-30T12:11:31;18.70;;;9.10;;
52934;SDS011;38802;50.198;19.796;2022-10-30T12:14:02;19.90;;;8.70;;
52934;SDS011;38802;50.198;19.796;2022-10-30T12:16:31;16.90;;;9.20;;
52934;SDS011;38802;50.198;19.796;2022-10-30T12:19:01;19.90;;;9.30;;
52934;SDS011;38802;50.198;19.796;2022-10-30T12:21:35;21.20;;;9.40;;
52934;SDS011;38802;50.198;19.796;2022-10-30T12:24:11;11.90;;;9.00;;
52934;SDS011;38802;50.198;19.796;2022-10-30T12:26:48;13.10;;;8.60;;
52934;SDS011;38802;50.198;19.796;2022-10-30T12:29:19;11.80;;;8.40;;
52934;SDS011;38802;50.198;19.796;2022-10-30T12:32:16;23.30;;;9.20;;
52934;SDS011;38802;50.198;19.796;2022-10-30T12:37:41;12.30;;;8.30;;
52934;SDS011;38802;50.198;19.796;2022-10-30T12:40:24;22.00;;;9.00;;
52934;SDS011;38802;50.198;19.796;2022-10-30T12:43:04;12.30;;;8.70;;
52934;SDS011;38802;50.198;19.796;2022-10-30T12:45:39;15.00;;;8.80;;
52934;SDS011;38802;50.198;19.796;2022-10-30T12:48:15;16.00;;;9.40;;
52934;SDS011;38802;50.198;19.796;2022-10-30T12:53:38;16.70;;;9.40;;
52934;SDS011;38802;50.198;19.796;2022-10-30T12:56:15;10.10;;;8.60;;
52934;SDS011;38802;50.198;19.796;2022-10-30T12:58:49;16.90;;;8.80;;
52934;SDS011;38802;50.198;19.796;2022-10-30T13:01:24;14.90;;;9.00;;
52934;SDS011;38802;50.198;19.796;2022-10-30T13:06:35;13.30;;;8.40;;
52934;SDS011;38802;50.198;19.796;2022-10-30T13:09:14;9.10;;;7.30;;
52934;SDS011;38802;50.198;19.796;2022-10-30T13:11:50;12.10;;;6.50;;
52934;SDS011;38802;50.198;19.796;2022-10-30T13:14:45;13.40;;;7.10;;
52934;SDS011;38802;50.198;19.796;2022-10-30T13:17:18;13.60;;;6.80;;
52934;SDS011;38802;50.198;19.796;2022-10-30T13:19:46;15.20;;;7.50;;
52934;SDS011;38802;50.198;19.796;2022-10-30T13:25:16;17.80;;;6.80;;
52934;SDS011;38802;50.198;19.796;2022-10-30T13:27:49;10.30;;;7.40;;
52934;SDS011;38802;50.198;19.796;2022-10-30T13:30:24;8.80;;;5.90;;
52934;SDS011;38802;50.198;19.796;2022-10-30T13:33:08;8.20;;;6.40;;
52934;SDS011;38802;50.198;19.796;2022-10-30T13:41:15;8.80;;;6.60;;
52934;SDS011;38802;50.198;19.796;2022-10-30T13:49:39;9.70;;;5.80;;
52934;SDS011;38802;50.198;19.796;2022-10-30T13:57:16;14.40;;;6.80;;
52934;SDS011;38802;50.198;19.796;2022-10-30T14:10:45;6.30;;;5.40;;
52934;SDS011;38802;50.198;19.796;2022-10-30T14:15:59;9.60;;;5.90;;
52934;SDS011;38802;50.198;19.796;2022-10-30T14:18:30;10.20;;;6.50;;
52934;SDS011;38802;50.198;19.796;2022-10-30T14:24:31;8.70;;;4.80;;
52934;SDS011;38802;50.198;19.796;2022-10-30T14:34:43;21.10;;;5.70;;
52934;SDS011;38802;50.198;19.796;2022-10-30T14:37:11;9.80;;;5.80;;
52934;SDS011;38802;50.198;19.796;2022-10-30T14:39:44;8.00;;;5.20;;
52934;SDS011;38802;50.198;19.796;2022-10-30T14:45:25;10.50;;;5.80;;
52934;SDS011;38802;50.198;19.796;2022-10-30T14:47:56;7.10;;;4.00;;
52934;SDS011;38802;50.198;19.796;2022-10-30T14:56:44;12.40;;;5.50;;
52934;SDS011;38802;50.198;19.796;2022-10-30T15:15:04;10.40;;;6.30;;
52934;SDS011;38802;50.198;19.796;2022-10-30T15:20:07;10.90;;;7.80;;
52934;SDS011;38802;50.198;19.796;2022-10-30T15:22:51;13.40;;;7.80;;
52934;SDS011;38802;50.198;19.796;2022-10-30T15:25:24;14.70;;;8.20;;
52934;SDS011;38802;50.198;19.796;2022-10-30T15:27:57;10.20;;;6.10;;
52934;SDS011;38802;50.198;19.796;2022-10-30T15:30:26;8.70;;;6.40;;
52934;SDS011;38802;50.198;19.796;2022-10-30T15:32:55;13.90;;;6.00;;
52934;SDS011;38802;50.198;19.796;2022-10-30T15:35:26;20.20;;;5.90;;
52934;SDS011;38802;50.198;19.796;2022-10-30T15:37:56;14.30;;;6.40;;
52934;SDS011;38802;50.198;19.796;2022-10-30T15:40:25;11.90;;;6.50;;
52934;SDS011;38802;50.198;19.796;2022-10-30T15:42:55;16.50;;;6.80;;
52934;SDS011;38802;50.198;19.796;2022-10-30T15:45:33;16.10;;;5.60;;
52934;SDS011;38802;50.198;19.796;2022-10-30T15:50:44;8.80;;;5.40;;
52934;SDS011;38802;50.198;19.796;2022-10-30T15:53:23;9.80;;;5.30;;
52934;SDS011;38802;50.198;19.796;2022-10-30T15:55:56;13.90;;;5.90;;
52934;SDS011;38802;50.198;19.796;2022-10-30T15:58:26;10.40;;;5.00;;
52934;SDS011;38802;50.198;19.796;2022-10-30T16:00:55;7.90;;;5.50;;
52934;SDS011;38802;50.198;19.796;2022-10-30T16:03:25;12.60;;;6.30;;
52934;SDS011;38802;50.198;19.796;2022-10-30T16:06:04;13.20;;;7.80;;
52934;SDS011;38802;50.198;19.796;2022-10-30T16:08:45;10.20;;;7.00;;
52934;SDS011;38802;50.198;19.796;2022-10-30T16:11:14;12.70;;;7.20;;
52934;SDS011;38802;50.198;19.796;2022-10-30T16:13:43;11.90;;;8.10;;
52934;SDS011;38802;50.198;19.796;2022-10-30T16:16:21;16.40;;;6.70;;
52934;SDS011;38802;50.198;19.796;2022-10-30T16:18:56;14.70;;;6.20;;
52934;SDS011;38802;50.198;19.796;2022-10-30T16:21:27;15.00;;;6.10;;
52934;SDS011;38802;50.198;19.796;2022-10-30T16:23:58;11.30;;;6.30;;
52934;SDS011;38802;50.198;19.796;2022-10-30T16:26:31;13.50;;;6.60;;
52934;SDS011;38802;50.198;19.796;2022-10-30T16:29:23;14.90;;;7.40;;
52934;SDS011;38802;50.198;19.796;2022-10-30T16:31:53;10.80;;;6.20;;
52934;SDS011;38802;50.198;19.796;2022-10-30T16:34:25;8.40;;;7.40;;
52934;SDS011;38802;50.198;19.796;2022-10-30T16:37:02;11.00;;;7.60;;
52934;SDS011;38802;50.198;19.796;2022-10-30T16:39:32;14.30;;;9.30;;
52934;SDS011;38802;50.198;19.796;2022-10-30T16:42:01;14.50;;;10.00;;
52934;SDS011;38802;50.198;19.796;2022-10-30T16:44:31;23.40;;;11.50;;
52934;SDS011;38802;50.198;19.796;2022-10-30T16:49:38;24.30;;;13.40;;
52934;SDS011;38802;50.198;19.796;2022-10-30T16:52:16;20.20;;;12.50;;
52934;SDS011;38802;50.198;19.796;2022-10-30T16:54:48;25.00;;;12.80;;
52934;SDS011;38802;50.198;19.796;2022-10-30T16:57:29;21.20;;;13.30;;
52934;SDS011;38802;50.198;19.796;2022-10-30T16:59:59;19.30;;;12.00;;
52934;SDS011;38802;50.198;19.796;2022-10-30T17:02:29;17.90;;;10.80;;
52934;SDS011;38802;50.198;19.796;2022-10-30T17:05:07;19.70;;;10.30;;
52934;SDS011;38802;50.198;19.796;2022-10-30T17:07:37;18.90;;;10.10;;
52934;SDS011;38802;50.198;19.796;2022-10-30T17:16:28;14.80;;;9.00;;
52934;SDS011;38802;50.198;19.796;2022-10-30T17:19:35;14.10;;;8.40;;
52934;SDS011;38802;50.198;19.796;2022-10-30T17:21:58;13.80;;;8.20;;
52934;SDS011;38802;50.198;19.796;2022-10-30T17:24:31;19.70;;;9.70;;
52934;SDS011;38802;50.198;19.796;2022-10-30T17:27:02;20.40;;;9.70;;
52934;SDS011;38802;50.198;19.796;2022-10-30T17:32:19;14.20;;;8.40;;
52934;SDS011;38802;50.198;19.796;2022-10-30T17:34:48;15.60;;;8.00;;
52934;SDS011;38802;50.198;19.796;2022-10-30T17:37:27;15.40;;;12.00;;
52934;SDS011;38802;50.198;19.796;2022-10-30T17:39:55;20.20;;;10.80;;
52934;SDS011;38802;50.198;19.796;2022-10-30T17:42:24;12.70;;;9.70;;
52934;SDS011;38802;50.198;19.796;2022-10-30T17:44:52;22.30;;;9.70;;
52934;SDS011;38802;50.198;19.796;2022-10-30T17:47:20;13.80;;;9.40;;
52934;SDS011;38802;50.198;19.796;2022-10-30T17:49:48;10.30;;;8.50;;
52934;SDS011;38802;50.198;19.796;2022-10-30T17:52:17;11.80;;;8.70;;
52934;SDS011;38802;50.198;19.796;2022-10-30T17:54:49;11.70;;;8.50;;